createdAt,value
2023-04-06T00:01:31.469Z,5.88
2023-04-06T00:03:58.492Z,5.35
2023-04-06T00:06:25.502Z,6.20
2023-04-06T00:08:52.353Z,6.13
2023-04-06T00:11:19.562Z,6.22
2023-04-06T00:13:46.570Z,6.45
2023-04-06T00:16:13.530Z,5.70
2023-04-06T00:18:41.317Z,5.35
2023-04-06T00:21:08.269Z,5.72
2023-04-06T00:23:35.420Z,5.53
2023-04-06T00:26:02.290Z,5.47
2023-04-06T00:28:30.952Z,5.93
2023-04-06T00:30:57.969Z,5.47
2023-04-06T00:33:25.274Z,5.78
2023-04-06T00:35:52.628Z,5.43
2023-04-06T00:38:20.077Z,6.13
2023-04-06T00:40:47.231Z,5.38
2023-04-06T00:43:14.813Z,6.28
2023-04-06T00:45:43.020Z,5.75
2023-04-06T00:48:10.223Z,6.40
2023-04-06T00:50:37.298Z,6.00
2023-04-06T00:53:04.265Z,5.43
2023-04-06T00:55:31.437Z,6.00
2023-04-06T00:58:01.323Z,5.55
2023-04-06T01:00:31.428Z,5.32
2023-04-06T01:03:00.904Z,6.00
2023-04-06T01:05:41.217Z,5.45
2023-04-06T01:08:12.948Z,5.30
2023-04-06T01:10:40.153Z,5.70
2023-04-06T01:13:19.071Z,6.35
2023-04-06T01:15:58.272Z,5.55
2023-04-06T01:18:32.207Z,5.53
2023-04-06T01:21:16.525Z,5.30
2023-04-06T01:23:58.012Z,5.88
2023-04-06T01:26:32.946Z,5.82
2023-04-06T01:29:02.471Z,6.45
2023-04-06T01:31:31.019Z,6.65
2023-04-06T01:33:58.502Z,6.40
2023-04-06T01:36:26.964Z,6.50
2023-04-06T01:39:02.253Z,5.95
2023-04-06T01:41:35.394Z,6.70
2023-04-06T01:44:03.407Z,6.22
2023-04-06T01:46:31.689Z,5.43
2023-04-06T01:48:59.623Z,5.57
2023-04-06T01:51:41.167Z,6.30
2023-04-06T01:54:11.993Z,5.57
2023-04-06T01:56:53.994Z,6.00
2023-04-06T01:59:31.977Z,6.18
2023-04-06T02:02:01.636Z,6.22
2023-04-06T02:04:30.020Z,5.63
2023-04-06T02:07:07.215Z,6.20
2023-04-06T02:09:34.175Z,5.57
2023-04-06T02:12:02.324Z,7.70
2023-04-06T02:14:31.398Z,5.95
2023-04-06T02:17:00.630Z,5.40
2023-04-06T02:19:27.941Z,5.70
2023-04-06T02:21:54.852Z,5.80
2023-04-06T02:24:21.797Z,6.00
2023-04-06T02:26:49.177Z,5.55
2023-04-06T02:29:16.106Z,6.30
2023-04-06T02:31:43.065Z,6.30
2023-04-06T02:34:12.949Z,7.03
2023-04-06T02:36:48.547Z,5.80
2023-04-06T02:39:15.699Z,5.68
2023-04-06T02:41:43.240Z,5.88
2023-04-06T02:44:11.431Z,6.18
2023-04-06T02:46:42.179Z,6.00
2023-04-06T02:49:09.595Z,5.63
2023-04-06T02:51:37.017Z,6.72
2023-04-06T02:54:16.853Z,6.32
2023-04-06T02:56:44.808Z,8.23
2023-04-06T02:59:12.353Z,6.70
2023-04-06T03:01:42.752Z,5.57
2023-04-06T03:04:09.755Z,6.72
2023-04-06T03:06:36.670Z,6.55
2023-04-06T03:09:13.089Z,5.90
2023-04-06T03:11:42.428Z,6.63
2023-04-06T03:14:09.383Z,6.25
2023-04-06T03:16:36.417Z,5.78
2023-04-06T03:19:03.824Z,6.55
2023-04-06T03:21:33.910Z,6.30
2023-04-06T03:24:01.436Z,6.28
2023-04-06T03:26:28.352Z,5.80
2023-04-06T03:28:55.310Z,6.88
2023-04-06T03:31:27.930Z,5.53
2023-04-06T03:34:00.252Z,6.03
2023-04-06T03:36:31.882Z,5.90
2023-04-06T03:38:59.662Z,5.90
2023-04-06T03:41:27.337Z,5.35
2023-04-06T03:44:00.855Z,5.63
2023-04-06T03:46:27.963Z,6.13
2023-04-06T03:48:57.686Z,6.35
2023-04-06T03:51:24.902Z,5.75
2023-04-06T03:53:52.330Z,5.68
2023-04-06T03:56:19.321Z,5.45
2023-04-06T03:58:50.435Z,6.03
2023-04-06T04:01:19.234Z,5.50
2023-04-06T04:03:46.255Z,5.78
2023-04-06T04:06:14.868Z,12.73
2023-04-06T04:08:42.473Z,8.75
2023-04-06T04:11:09.452Z,8.80
2023-04-06T04:13:36.557Z,6.50
2023-04-06T04:16:06.112Z,7.70
2023-04-06T04:18:33.090Z,9.80
2023-04-06T04:20:59.961Z,8.05
2023-04-06T04:23:26.903Z,6.47
2023-04-06T04:25:53.871Z,5.82
2023-04-06T04:28:21.073Z,4.97
2023-04-06T04:30:48.310Z,5.65
2023-04-06T04:33:15.839Z,5.82
2023-04-06T04:35:43.682Z,5.68
2023-04-06T04:38:14.439Z,6.03
2023-04-06T04:40:43.501Z,7.67
2023-04-06T04:43:12.360Z,5.60
2023-04-06T04:45:39.814Z,5.90
2023-04-06T04:48:23.523Z,6.10
2023-04-06T04:50:58.580Z,5.45
2023-04-06T04:53:29.922Z,5.47
2023-04-06T04:56:02.918Z,5.80
2023-04-06T04:58:30.226Z,5.78
2023-04-06T05:03:28.291Z,5.43
2023-04-06T05:05:59.615Z,6.03
2023-04-06T05:08:30.592Z,5.85
2023-04-06T05:10:58.292Z,5.82
2023-04-06T05:13:25.809Z,5.88
2023-04-06T05:15:54.601Z,5.72
2023-04-06T05:18:28.247Z,5.65
2023-04-06T05:20:56.823Z,6.18
2023-04-06T05:23:31.647Z,5.55
2023-04-06T05:26:01.154Z,6.13
2023-04-06T05:28:28.166Z,5.90
2023-04-06T05:30:55.386Z,6.40
2023-04-06T05:33:22.606Z,6.40
2023-04-06T05:36:15.832Z,6.50
2023-04-06T05:38:45.995Z,5.88
2023-04-06T05:41:32.994Z,5.78
2023-04-06T05:44:00.428Z,6.20
2023-04-06T05:46:28.070Z,5.80
2023-04-06T05:48:57.587Z,5.22
2023-04-06T05:51:28.447Z,5.32
2023-04-06T05:53:55.564Z,5.25
2023-04-06T05:56:22.988Z,5.53
2023-04-06T05:58:49.908Z,5.85
2023-04-06T06:01:23.093Z,5.50
2023-04-06T06:03:50.125Z,5.60
2023-04-06T06:06:17.122Z,5.38
2023-04-06T06:09:04.551Z,5.88
2023-04-06T06:11:35.126Z,5.72
2023-04-06T06:14:03.870Z,5.53
2023-04-06T06:16:34.953Z,5.22
2023-04-06T06:19:02.113Z,4.95
2023-04-06T06:21:29.354Z,5.32
2023-04-06T06:23:56.307Z,6.20
2023-04-06T06:26:24.578Z,5.32
2023-04-06T06:28:51.910Z,5.65
2023-04-06T06:31:21.586Z,5.85
2023-04-06T06:33:51.231Z,6.18
2023-04-06T06:36:19.786Z,6.50
2023-04-06T06:38:47.429Z,5.80
2023-04-06T06:41:17.241Z,6.15
2023-04-06T06:43:44.193Z,5.50
2023-04-06T06:46:12.539Z,6.05
2023-04-06T06:48:40.953Z,5.97
2023-04-06T06:51:07.982Z,7.10
2023-04-06T06:53:34.948Z,5.18
2023-04-06T06:56:01.907Z,5.93
2023-04-06T06:58:31.329Z,6.68
2023-04-06T07:01:00.980Z,5.22
2023-04-06T07:03:30.976Z,5.10
2023-04-06T07:05:58.319Z,5.88
2023-04-06T07:08:26.612Z,5.38
2023-04-06T07:10:54.455Z,5.80
2023-04-06T07:13:25.071Z,6.15
2023-04-06T07:15:55.833Z,5.55
2023-04-06T07:18:23.827Z,5.47
2023-04-06T07:20:51.093Z,5.40
2023-04-06T07:23:18.864Z,5.15
2023-04-06T07:25:46.555Z,7.85
2023-04-06T07:28:13.536Z,6.03
2023-04-06T07:30:41.408Z,5.47
2023-04-06T07:33:09.974Z,7.60
2023-04-06T07:35:37.860Z,8.30
2023-04-06T07:38:06.317Z,8.27
2023-04-06T07:40:34.801Z,7.28
2023-04-06T07:43:03.074Z,7.85
2023-04-06T07:45:30.979Z,7.07
2023-04-06T07:47:59.348Z,7.88
2023-04-06T07:50:27.701Z,9.57
2023-04-06T07:52:55.976Z,14.10
2023-04-06T07:55:23.320Z,14.50
2023-04-06T07:57:50.356Z,10.73
2023-04-06T08:00:17.972Z,10.48
2023-04-06T08:02:45.083Z,7.70
2023-04-06T08:05:12.169Z,7.32
2023-04-06T08:07:39.155Z,6.60
2023-04-06T08:10:06.383Z,6.78
2023-04-06T08:12:36.473Z,7.00
2023-04-06T08:17:34.962Z,7.05
2023-04-06T08:20:04.033Z,8.00
2023-04-06T08:22:31.041Z,8.00
2023-04-06T08:24:57.987Z,10.27
2023-04-06T08:27:24.939Z,10.32
2023-04-06T08:29:57.465Z,7.40
2023-04-06T08:32:26.629Z,6.78
2023-04-06T08:35:00.524Z,7.70
2023-04-06T08:37:32.892Z,7.57
2023-04-06T08:40:06.421Z,7.00
2023-04-06T08:42:47.002Z,7.63
2023-04-06T08:45:16.977Z,8.57
2023-04-06T08:47:44.034Z,7.90
2023-04-06T08:50:14.729Z,8.52
2023-04-06T08:52:44.041Z,6.78
2023-04-06T08:55:10.983Z,7.30
2023-04-06T08:57:38.394Z,8.18
2023-04-06T09:00:07.233Z,8.05
2023-04-06T09:02:34.405Z,9.05
2023-04-06T09:05:03.006Z,8.13
2023-04-06T09:07:30.483Z,8.65
2023-04-06T09:09:57.543Z,8.98
2023-04-06T09:12:32.772Z,8.38
2023-04-06T09:15:00.964Z,8.07
2023-04-06T09:17:31.036Z,8.55
2023-04-06T09:19:58.295Z,7.82
2023-04-06T09:22:29.362Z,8.48
2023-04-06T09:24:56.393Z,7.90
2023-04-06T09:27:37.335Z,7.90
2023-04-06T09:30:15.232Z,8.88
2023-04-06T09:33:00.940Z,7.35
2023-04-06T09:35:28.458Z,7.80
2023-04-06T09:37:56.331Z,7.90
2023-04-06T09:40:23.437Z,8.68
2023-04-06T09:42:52.992Z,9.60
2023-04-06T09:45:20.151Z,9.02
2023-04-06T09:47:47.664Z,9.38
2023-04-06T09:50:17.295Z,8.90
2023-04-06T09:52:52.094Z,8.73
2023-04-06T09:55:31.648Z,7.88
2023-04-06T09:58:10.757Z,8.45
2023-04-06T10:00:54.843Z,12.47
2023-04-06T10:03:38.744Z,9.35
2023-04-06T10:06:14.012Z,8.25
2023-04-06T10:08:42.456Z,7.70
2023-04-06T10:11:11.605Z,9.70
2023-04-06T10:13:38.952Z,11.32
2023-04-06T10:16:07.217Z,9.68
2023-04-06T10:18:34.583Z,8.32
2023-04-06T10:21:05.276Z,13.77
2023-04-06T10:23:40.917Z,9.20
2023-04-06T10:26:15.065Z,11.27
2023-04-06T10:28:43.426Z,11.73
2023-04-06T10:31:10.922Z,9.63
2023-04-06T10:33:37.854Z,10.10
2023-04-06T10:36:12.306Z,10.68
2023-04-06T10:38:41.881Z,9.45
2023-04-06T10:41:11.834Z,7.13
2023-04-06T10:43:43.069Z,7.43
2023-04-06T10:46:11.558Z,11.65
2023-04-06T10:48:43.111Z,11.73
2023-04-06T10:51:15.094Z,9.15
2023-04-06T10:53:50.426Z,7.50
2023-04-06T10:56:18.732Z,8.23
2023-04-06T10:58:53.011Z,10.30
2023-04-06T11:01:22.342Z,7.18
2023-04-06T11:03:51.153Z,7.32
2023-04-06T11:06:30.607Z,10.68
2023-04-06T11:08:58.451Z,7.75
2023-04-06T11:11:27.622Z,9.18
2023-04-06T11:13:57.600Z,9.27
2023-04-06T11:16:26.982Z,7.65
2023-04-06T11:18:59.021Z,8.15
2023-04-06T11:21:41.040Z,7.10
2023-04-06T11:24:09.407Z,8.30
2023-04-06T11:26:46.950Z,7.88
2023-04-06T11:29:15.842Z,8.38
2023-04-06T11:31:46.063Z,9.10
2023-04-06T11:34:17.332Z,8.07
2023-04-06T11:36:46.095Z,7.53
2023-04-06T11:39:21.200Z,7.60
2023-04-06T11:41:52.397Z,8.02
2023-04-06T11:44:50.698Z,9.77
2023-04-06T11:47:17.904Z,9.57
2023-04-06T11:49:48.666Z,7.00
2023-04-06T11:52:24.069Z,7.40
2023-04-06T11:54:53.224Z,7.10
2023-04-06T11:57:25.493Z,7.13
2023-04-06T11:59:53.248Z,8.00
2023-04-06T12:02:20.469Z,7.40
2023-04-06T12:04:47.764Z,7.18
2023-04-06T12:07:14.887Z,6.60
2023-04-06T12:09:44.041Z,7.03
2023-04-06T12:12:11.121Z,8.15
2023-04-06T12:14:38.194Z,6.55
2023-04-06T12:17:05.402Z,7.93
2023-04-06T12:19:32.748Z,7.40
2023-04-06T12:21:59.896Z,7.07
2023-04-06T12:24:26.813Z,7.70
2023-04-06T12:27:02.694Z,8.20
2023-04-06T12:29:36.082Z,8.70
2023-04-06T12:32:03.261Z,8.02
2023-04-06T12:34:30.438Z,7.90
2023-04-06T12:36:58.025Z,7.63
2023-04-06T12:39:25.133Z,7.55
2023-04-06T12:41:52.102Z,8.65
2023-04-06T12:44:19.039Z,7.30
2023-04-06T12:46:46.365Z,6.47
2023-04-06T12:49:13.819Z,7.80
2023-04-06T12:51:40.817Z,7.53
2023-04-06T12:54:07.779Z,7.30
2023-04-06T12:56:34.770Z,6.40
2023-04-06T12:59:02.165Z,6.10
2023-04-06T13:01:29.653Z,6.97
2023-04-06T13:03:58.755Z,8.45
2023-04-06T13:06:28.605Z,7.33
2023-04-06T13:08:56.169Z,6.50
2023-04-06T13:11:26.277Z,7.25
2023-04-06T13:13:54.053Z,9.77
2023-04-06T13:16:21.638Z,7.40
2023-04-06T13:18:48.658Z,6.65
2023-04-06T13:21:17.238Z,7.00
2023-04-06T13:23:45.668Z,7.22
2023-04-06T13:26:14.421Z,8.13
2023-04-06T13:28:41.835Z,7.70
2023-04-06T13:31:10.633Z,10.23
2023-04-06T13:33:38.056Z,7.38
2023-04-06T13:36:07.652Z,6.22
2023-04-06T13:38:34.960Z,6.95
2023-04-06T13:41:02.029Z,6.18
2023-04-06T13:43:29.169Z,7.85
2023-04-06T13:45:56.961Z,7.70
2023-04-06T13:48:25.223Z,8.32
2023-04-06T13:50:52.211Z,7.07
2023-04-06T13:53:19.400Z,6.32
2023-04-06T13:55:54.307Z,7.60
2023-04-06T13:58:21.620Z,7.35
2023-04-06T14:00:49.055Z,9.98
2023-04-06T14:03:16.387Z,10.27
2023-04-06T14:05:43.481Z,11.95
2023-04-06T14:08:10.789Z,8.60
2023-04-06T14:10:43.008Z,6.70
2023-04-06T14:13:10.052Z,6.68
2023-04-06T14:15:36.964Z,6.68
2023-04-06T14:18:04.169Z,6.75
2023-04-06T14:20:34.135Z,6.88
2023-04-06T14:25:28.563Z,7.30
2023-04-06T14:27:55.598Z,9.15
2023-04-06T14:30:22.458Z,9.48
2023-04-06T14:32:49.271Z,6.80
2023-04-06T14:35:16.353Z,6.30
2023-04-06T14:37:43.206Z,5.95
2023-04-06T14:40:10.372Z,6.43
2023-04-06T14:42:37.770Z,6.78
2023-04-06T14:45:05.116Z,6.93
2023-04-06T14:47:32.694Z,8.48
2023-04-06T14:49:59.604Z,6.28
2023-04-06T14:52:26.459Z,6.05
2023-04-06T14:54:53.327Z,7.43
2023-04-06T14:57:20.468Z,6.13
2023-04-06T14:59:47.442Z,6.38
2023-04-06T15:02:14.450Z,5.53
2023-04-06T15:04:41.453Z,7.18
2023-04-06T15:07:08.245Z,8.60
2023-04-06T15:09:36.669Z,5.85
2023-04-06T15:12:04.044Z,6.05
2023-04-06T15:14:31.231Z,5.57
2023-04-06T15:16:58.170Z,5.75
2023-04-06T15:19:25.077Z,6.05
2023-04-06T15:21:52.207Z,6.45
2023-04-06T15:24:19.080Z,7.00
2023-04-06T15:26:46.622Z,6.15
2023-04-06T15:29:13.450Z,6.80
2023-04-06T15:31:40.957Z,7.68
2023-04-06T15:34:10.624Z,5.60
2023-04-06T15:36:37.535Z,7.18
2023-04-06T15:39:04.932Z,5.60
2023-04-06T15:41:32.087Z,6.30
2023-04-06T15:43:59.163Z,5.50
2023-04-06T15:46:28.282Z,5.97
2023-04-06T15:48:56.424Z,5.60
2023-04-06T15:51:24.396Z,6.35
2023-04-06T15:53:51.418Z,6.43
2023-04-06T15:56:18.346Z,6.88
2023-04-06T15:58:45.597Z,7.28
2023-04-06T16:01:18.090Z,5.35
2023-04-06T16:03:46.018Z,5.90
2023-04-06T16:06:13.268Z,6.68
2023-04-06T16:08:40.811Z,6.15
2023-04-06T16:11:08.323Z,5.78
2023-04-06T16:13:36.329Z,8.57
2023-04-06T16:16:04.568Z,5.85
2023-04-06T16:18:33.074Z,6.18
2023-04-06T16:21:01.078Z,8.25
2023-04-06T16:23:28.011Z,7.60
2023-04-06T16:25:54.853Z,6.45
2023-04-06T16:28:23.262Z,7.25
2023-04-06T16:30:50.198Z,5.95
2023-04-06T16:33:19.342Z,6.68
2023-04-06T16:35:47.109Z,8.35
2023-04-06T16:38:14.985Z,5.50
2023-04-06T16:40:42.220Z,8.15
2023-04-06T16:43:10.099Z,5.82
2023-04-06T16:45:38.178Z,7.30
2023-04-06T16:48:06.099Z,6.05
2023-04-06T16:50:33.497Z,7.28
2023-04-06T16:53:00.621Z,6.10
2023-04-06T16:55:27.532Z,6.38
2023-04-06T16:57:55.830Z,6.55
2023-04-06T17:00:22.843Z,6.07
2023-04-06T17:02:50.147Z,7.93
2023-04-06T17:05:21.777Z,6.28
2023-04-06T17:07:48.726Z,5.88
2023-04-06T17:10:17.607Z,6.32
2023-04-06T17:12:47.184Z,6.53
2023-04-06T17:15:14.427Z,5.82
2023-04-06T17:17:41.901Z,5.88
2023-04-06T17:20:09.601Z,6.75
2023-04-06T17:22:36.587Z,5.20
2023-04-06T17:25:05.459Z,6.05
2023-04-06T17:27:32.570Z,5.70
2023-04-06T17:30:04.750Z,6.82
2023-04-06T17:32:32.620Z,5.88
2023-04-06T17:34:59.829Z,7.05
2023-04-06T17:37:26.920Z,5.97
2023-04-06T17:39:54.623Z,5.65
2023-04-06T17:44:53.815Z,4.57
2023-04-06T17:47:20.948Z,5.97
2023-04-06T17:49:49.110Z,4.50
2023-04-06T17:52:16.055Z,5.88
2023-04-06T17:54:42.952Z,4.88
2023-04-06T17:57:09.850Z,4.82
2023-04-06T17:59:36.744Z,5.40
2023-04-06T18:02:04.386Z,6.35
2023-04-06T18:04:31.462Z,9.25
2023-04-06T18:06:58.647Z,6.53
2023-04-06T18:11:53.587Z,6.45
2023-04-06T18:14:20.412Z,6.60
2023-04-06T18:16:47.450Z,5.47
2023-04-06T18:19:14.568Z,5.35
2023-04-06T18:21:42.156Z,5.82
2023-04-06T18:24:12.294Z,5.43
2023-04-06T18:26:42.113Z,5.07
2023-04-06T18:29:09.009Z,4.88
2023-04-06T18:34:07.761Z,5.43
2023-04-06T18:36:34.645Z,4.68
2023-04-06T18:39:01.646Z,6.70
2023-04-06T18:41:29.306Z,5.07
2023-04-06T18:43:56.501Z,4.95
2023-04-06T18:46:24.924Z,5.90
2023-04-06T18:48:51.856Z,4.65
2023-04-06T18:51:18.785Z,4.70
2023-04-06T18:53:45.646Z,4.43
2023-04-06T18:56:16.497Z,5.10
2023-04-06T18:58:44.282Z,5.45
2023-04-06T19:01:11.540Z,4.40
2023-04-06T19:03:39.873Z,4.22
2023-04-06T19:06:10.021Z,4.72
2023-04-06T19:11:07.893Z,4.25
2023-04-06T19:13:35.637Z,5.60
2023-04-06T19:16:02.589Z,5.20
2023-04-06T19:18:29.448Z,5.20
2023-04-06T19:20:56.223Z,3.85
2023-04-06T19:23:23.835Z,4.05
2023-04-06T19:25:52.718Z,4.15
2023-04-06T19:28:20.911Z,5.07
2023-04-06T19:30:47.860Z,4.07
2023-04-06T19:33:16.383Z,4.60
2023-04-06T19:35:43.283Z,4.72
2023-04-06T19:38:11.135Z,4.63
2023-04-06T19:40:38.038Z,6.13
2023-04-06T19:43:04.991Z,6.80
2023-04-06T19:45:31.874Z,6.22
2023-04-06T19:47:58.985Z,6.90
2023-04-06T19:50:25.858Z,7.22
2023-04-06T19:52:55.600Z,6.55
2023-04-06T19:55:22.485Z,5.00
2023-04-06T19:57:50.012Z,5.88
2023-04-06T20:00:17.214Z,5.35
2023-04-06T20:02:44.432Z,5.72
2023-04-06T20:05:11.408Z,6.20
2023-04-06T20:07:39.500Z,7.15
2023-04-06T20:10:08.556Z,5.90
2023-04-06T20:12:35.609Z,5.07
2023-04-06T20:15:02.794Z,4.53
2023-04-06T20:17:29.670Z,4.55
2023-04-06T20:19:56.505Z,6.75
2023-04-06T20:22:23.845Z,4.35
2023-04-06T20:24:50.897Z,4.13
2023-04-06T20:27:18.913Z,4.47
2023-04-06T20:29:45.965Z,4.65
2023-04-06T20:32:14.514Z,4.30
2023-04-06T20:34:41.453Z,4.30
2023-04-06T20:37:08.870Z,5.93
2023-04-06T20:39:36.854Z,6.75
2023-04-06T20:42:03.982Z,5.25
2023-04-06T20:44:32.102Z,4.82
2023-04-06T20:46:59.598Z,4.43
2023-04-06T20:49:28.091Z,4.53
2023-04-06T20:51:54.980Z,5.55
2023-04-06T20:54:21.867Z,4.22
2023-04-06T20:56:48.751Z,4.57
2023-04-06T20:59:15.893Z,4.05
2023-04-06T21:01:44.236Z,4.30
2023-04-06T21:04:11.433Z,4.07
2023-04-06T21:06:38.401Z,6.07
2023-04-06T21:09:05.346Z,4.22
2023-04-06T21:11:32.212Z,5.10
2023-04-06T21:13:59.085Z,6.28
2023-04-06T21:16:26.022Z,4.45
2023-04-06T21:18:52.953Z,4.47
2023-04-06T21:21:19.879Z,4.30
2023-04-06T21:23:46.827Z,4.40
2023-04-06T21:26:13.727Z,4.53
2023-04-06T21:28:40.736Z,4.82
2023-04-06T21:31:11.544Z,4.53
2023-04-06T21:33:38.406Z,4.18
2023-04-06T21:36:06.656Z,4.28
2023-04-06T21:38:35.215Z,3.88
2023-04-06T21:41:02.039Z,5.65
2023-04-06T21:43:28.936Z,3.53
2023-04-06T21:45:56.022Z,4.15
2023-04-06T21:48:22.968Z,4.55
2023-04-06T21:50:49.833Z,3.60
2023-04-06T21:53:16.706Z,3.70
2023-04-06T21:55:46.044Z,4.05
2023-04-06T21:58:14.356Z,5.00
2023-04-06T22:00:41.848Z,4.45
2023-04-06T22:03:09.026Z,4.07
2023-04-06T22:05:38.235Z,3.97
2023-04-06T22:08:05.346Z,4.30
2023-04-06T22:10:32.249Z,4.45
2023-04-06T22:12:59.288Z,4.43
2023-04-06T22:15:26.953Z,4.60
2023-04-06T22:17:53.925Z,4.13
2023-04-06T22:20:21.319Z,4.30
2023-04-06T22:22:48.220Z,4.60
2023-04-06T22:25:15.075Z,3.85
2023-04-06T22:27:41.840Z,4.70
2023-04-06T22:30:09.163Z,4.65
2023-04-06T22:32:36.319Z,4.22
2023-04-06T22:35:03.221Z,3.90
2023-04-06T22:37:30.515Z,3.90
2023-04-06T22:39:57.434Z,3.95
2023-04-06T22:42:24.284Z,4.57
2023-04-06T22:44:51.091Z,4.13
2023-04-06T22:47:18.303Z,4.22
2023-04-06T22:49:45.419Z,4.25
2023-04-06T22:52:12.299Z,4.38
2023-04-06T22:54:39.303Z,3.97
2023-04-06T22:57:06.344Z,4.63
2023-04-06T22:59:33.195Z,4.30
2023-04-06T23:02:00.177Z,3.88
2023-04-06T23:04:27.384Z,4.70
2023-04-06T23:06:54.325Z,4.22
2023-04-06T23:09:21.774Z,4.43
2023-04-06T23:11:49.433Z,4.20
2023-04-06T23:14:16.806Z,3.92
2023-04-06T23:16:44.000Z,3.95
2023-04-06T23:19:11.418Z,4.40
2023-04-06T23:21:38.354Z,4.57
2023-04-06T23:24:05.630Z,4.75
2023-04-06T23:26:32.961Z,4.70
2023-04-06T23:28:59.900Z,3.60
2023-04-06T23:31:26.858Z,3.78
2023-04-06T23:33:53.643Z,3.63
2023-04-06T23:36:20.737Z,4.00
2023-04-06T23:38:47.703Z,3.40
2023-04-06T23:41:16.242Z,3.72
2023-04-06T23:43:43.244Z,3.83
2023-04-06T23:46:10.304Z,4.82
2023-04-06T23:48:39.352Z,4.10
2023-04-06T23:51:06.751Z,4.75
2023-04-06T23:53:33.651Z,4.00
2023-04-06T23:56:00.609Z,4.00
2023-04-06T23:58:27.562Z,3.60
